Bookmark and Share
Track history (hours):
 

Rina Amoretti

Last reported at 2014-Apr-17 20:09 UTC. Time now 2014-Apr-21 03:14 UTC.
Position N 38°18' E 015°09'.

Length 244 m; draft 7.5 m.

Type: Ship (hazmat cat A). MMSI: 247197000.

NotesDate/timePositionNaut miles runAvg speedWind from/ knotsBaromVisibWave heightAir tempDewpointWater temp
2014-Apr-17 20:09N 38°18' E 015°09'610.7
2014-Apr-17 19:33N 38°18' E 015°17'1110.6
2014-Apr-17 18:33N 38°19' E 015°30'  
2014-Apr-15 07:33N 40°31' E 014°11'1312.9
2014-Apr-15 06:33N 40°43' E 014°16'7 1.7
2014-Apr-15 02:31N 40°50' E 014°17'0 0.0
2014-Apr-15 01:31N 40°50' E 014°17'0 0.0
2014-Apr-15 00:31N 40°50' E 014°17'0 0.0
2014-Apr-14 21:31N 40°50' E 014°17'0 0.0
2014-Apr-14 18:31N 40°50' E 014°17'0 0.0
2014-Apr-14 14:31N 40°50' E 014°17'2 0.4
2014-Apr-14 10:33N 40°49' E 014°19'1 0.6
2014-Apr-14 09:29N 40°49' E 014°19'0 0.0
2014-Apr-14 05:32N 40°49' E 014°19'221 5.2
2014-Apr-12 11:04N 37°12' E 015°16'69 1.7
2014-Apr-10 18:19N 38°20' E 015°28'1011.9
2014-Apr-10 17:27N 38°19' E 015°41'2010.2
2014-Apr-10 15:28N 37°59' E 015°33'4912.5
2014-Apr-10 11:32N 37°12' E 015°15'158 3.3
2014-Apr-08 11:33N 39°48' E 014°40'3213.3
2014-Apr-08 09:10N 40°16' E 014°20'913.7
2014-Apr-08 08:32N 40°24' E 014°15'1212.7
2014-Apr-08 07:33N 40°36' E 014°11'1313.2
2014-Apr-08 06:33N 40°48' E 014°17'2 0.3
2014-Apr-07 23:23N 40°50' E 014°17'0 0.0
2014-Apr-07 22:32N 40°50' E 014°17'0 0.0
2014-Apr-07 21:08N 40°50' E 014°17'0 0.0
2014-Apr-07 20:32N 40°50' E 014°17'  

Dump ship's entire track history

sailing weather and tide predictions

Rina Amoretti — IBRR — position and weather